createdAt,value
2023-10-11T00:00:10.728Z,10.5
2023-10-11T00:02:36.829Z,10.4
2023-10-11T00:05:02.921Z,10.4
2023-10-11T00:07:29.022Z,10.4
2023-10-11T00:09:55.134Z,10.4
2023-10-11T00:12:21.219Z,10.4
2023-10-11T00:14:47.296Z,10.4
2023-10-11T00:17:13.397Z,10.3
2023-10-11T00:19:39.486Z,10.3
2023-10-11T00:22:05.586Z,10.3
2023-10-11T00:24:31.688Z,10.3
2023-10-11T00:26:57.893Z,10.3
2023-10-11T00:29:24.003Z,10.3
2023-10-11T00:31:50.081Z,10.3
2023-10-11T00:34:16.178Z,10.3
2023-10-11T00:36:42.273Z,10.3
2023-10-11T00:39:08.361Z,10.3
2023-10-11T00:41:34.463Z,10.3
2023-10-11T00:44:00.558Z,10.3
2023-10-11T00:46:26.658Z,10.3
2023-10-11T00:48:52.754Z,10.3
2023-10-11T00:51:18.851Z,10.3
2023-10-11T00:53:44.948Z,10.3
2023-10-11T00:56:11.048Z,10.4
2023-10-11T00:58:36.158Z,10.4
2023-10-11T01:01:02.256Z,10.4
2023-10-11T01:03:28.350Z,10.5
2023-10-11T01:05:54.436Z,10.5
2023-10-11T01:08:20.532Z,10.5
2023-10-11T01:10:46.632Z,10.6
2023-10-11T01:13:12.724Z,10.6
2023-10-11T01:15:38.812Z,10.6
2023-10-11T01:18:04.914Z,10.7
2023-10-11T01:20:31.014Z,10.7
2023-10-11T01:22:57.109Z,10.7
2023-10-11T01:25:23.207Z,10.7
2023-10-11T01:27:49.299Z,10.7
2023-10-11T01:30:15.520Z,10.7
2023-10-11T01:32:41.614Z,10.7
2023-10-11T01:35:07.710Z,10.7
2023-10-11T01:37:33.800Z,10.6
2023-10-11T01:39:59.905Z,10.6
2023-10-11T01:42:25.993Z,10.6
2023-10-11T01:44:52.083Z,10.6
2023-10-11T01:47:18.181Z,10.6
2023-10-11T01:49:44.268Z,10.6
2023-10-11T01:52:10.384Z,10.6
2023-10-11T01:54:36.469Z,10.6
2023-10-11T01:57:02.562Z,10.6
2023-10-11T01:59:28.653Z,10.6
2023-10-11T02:01:53.760Z,10.6
2023-10-11T02:04:19.891Z,10.6
2023-10-11T02:06:45.948Z,10.6
2023-10-11T02:09:12.065Z,10.6
2023-10-11T02:11:38.160Z,10.6
2023-10-11T02:14:04.248Z,10.5
2023-10-11T02:16:30.334Z,10.5
2023-10-11T02:18:56.425Z,10.5
2023-10-11T02:21:22.543Z,10.4
2023-10-11T02:23:48.644Z,10.4
2023-10-11T02:26:14.727Z,10.4
2023-10-11T02:28:40.824Z,10.3
2023-10-11T02:31:06.900Z,10.3
2023-10-11T02:33:33.121Z,10.3
2023-10-11T02:35:59.232Z,10.2
2023-10-11T02:38:25.325Z,10.2
2023-10-11T02:40:51.410Z,10.2
2023-10-11T02:43:17.511Z,10.2
2023-10-11T02:45:43.607Z,10.2
2023-10-11T02:48:09.694Z,10.2
2023-10-11T02:50:35.797Z,10.1
2023-10-11T02:53:01.914Z,10.1
2023-10-11T02:55:27.987Z,10.1
2023-10-11T02:57:54.083Z,10.1
2023-10-11T03:00:20.176Z,10.1
2023-10-11T03:02:46.313Z,10.1
2023-10-11T03:05:11.380Z,10
2023-10-11T03:07:37.492Z,10
2023-10-11T03:10:03.562Z,10
2023-10-11T03:12:29.663Z,10
2023-10-11T03:14:55.773Z,9.9
2023-10-11T03:17:21.866Z,9.9
2023-10-11T03:19:47.961Z,9.9
2023-10-11T03:22:14.050Z,9.9
2023-10-11T03:24:40.147Z,9.8
2023-10-11T03:27:06.244Z,9.8
2023-10-11T03:29:32.339Z,9.8
2023-10-11T03:31:58.430Z,9.8
2023-10-11T03:34:24.522Z,9.8
2023-10-11T03:36:50.734Z,9.8
2023-10-11T03:39:16.836Z,9.8
2023-10-11T03:41:42.934Z,9.8
2023-10-11T03:44:09.016Z,9.8
2023-10-11T03:46:35.123Z,9.8
2023-10-11T03:49:01.223Z,9.7
2023-10-11T03:51:27.322Z,9.7
2023-10-11T03:53:53.399Z,9.7
2023-10-11T03:56:19.515Z,9.7
2023-10-11T03:58:45.596Z,9.7
2023-10-11T04:01:11.703Z,9.7
2023-10-11T04:03:37.796Z,9.7
2023-10-11T04:06:03.881Z,9.6
2023-10-11T04:08:29.002Z,9.6
2023-10-11T04:10:55.097Z,9.6
2023-10-11T04:13:21.170Z,9.6
2023-10-11T04:15:47.276Z,9.6
2023-10-11T04:18:13.366Z,9.6
2023-10-11T04:20:39.472Z,9.6
2023-10-11T04:23:05.561Z,9.6
2023-10-11T04:25:31.647Z,9.6
2023-10-11T04:27:57.746Z,9.6
2023-10-11T04:30:23.847Z,9.6
2023-10-11T04:32:49.936Z,9.6
2023-10-11T04:35:16.040Z,9.6
2023-10-11T04:37:42.129Z,9.7
2023-10-11T04:40:08.343Z,9.7
2023-10-11T04:42:34.450Z,9.7
2023-10-11T04:45:00.536Z,9.7
2023-10-11T04:47:26.638Z,9.7
2023-10-11T04:49:52.726Z,9.7
2023-10-11T04:52:18.833Z,9.7
2023-10-11T04:54:44.911Z,9.7
2023-10-11T04:57:11.025Z,9.7
2023-10-11T04:59:37.112Z,9.7
2023-10-11T05:02:03.204Z,9.7
2023-10-11T05:04:29.309Z,9.7
2023-10-11T05:06:55.396Z,9.7
2023-10-11T05:09:21.508Z,9.6
2023-10-11T05:11:46.673Z,9.6
2023-10-11T05:14:12.738Z,9.6
2023-10-11T05:16:38.798Z,9.6
2023-10-11T05:19:04.877Z,9.5
2023-10-11T05:21:30.973Z,9.5
2023-10-11T05:23:57.084Z,9.5
2023-10-11T05:26:22.206Z,9.5
2023-10-11T05:28:48.285Z,9.4
2023-10-11T05:31:14.388Z,9.4
2023-10-11T05:36:06.573Z,9.4
2023-10-11T05:38:32.678Z,9.4
2023-10-11T05:40:58.759Z,9.4
2023-10-11T05:43:24.875Z,9.4
2023-10-11T05:45:50.966Z,9.4
2023-10-11T05:48:17.040Z,9.4
2023-10-11T05:50:43.144Z,9.3
2023-10-11T05:53:09.230Z,9.3
2023-10-11T05:55:35.334Z,9.3
2023-10-11T05:58:01.555Z,9.3
2023-10-11T06:00:27.771Z,9.3
2023-10-11T06:02:53.748Z,9.3
2023-10-11T06:05:19.833Z,9.4
2023-10-11T06:07:45.931Z,9.4
2023-10-11T06:10:12.050Z,9.4
2023-10-11T06:12:38.162Z,9.4
2023-10-11T06:15:04.231Z,9.4
2023-10-11T06:17:30.313Z,9.4
2023-10-11T06:19:56.420Z,9.4
2023-10-11T06:22:22.507Z,9.4
2023-10-11T06:24:48.611Z,9.4
2023-10-11T06:27:14.697Z,9.4
2023-10-11T06:29:39.821Z,9.4
2023-10-11T06:32:05.903Z,9.5
2023-10-11T06:34:31.996Z,9.5
2023-10-11T06:36:58.115Z,9.5
2023-10-11T06:39:24.196Z,9.5
2023-10-11T06:41:50.298Z,9.6
2023-10-11T06:44:16.387Z,9.6
2023-10-11T06:46:42.473Z,9.7
2023-10-11T06:49:08.578Z,9.7
2023-10-11T06:51:34.688Z,9.7
2023-10-11T06:54:00.768Z,9.8
2023-10-11T06:56:26.869Z,9.8
2023-10-11T06:58:52.943Z,9.9
2023-10-11T07:01:19.167Z,9.9
2023-10-11T07:03:45.264Z,9.9
2023-10-11T07:06:11.364Z,10
2023-10-11T07:08:37.484Z,10
2023-10-11T07:11:03.554Z,10.1
2023-10-11T07:13:29.640Z,10.1
2023-10-11T07:15:55.935Z,10.2
2023-10-11T07:18:21.835Z,10.2
2023-10-11T07:20:48.142Z,10.3
2023-10-11T07:23:14.030Z,10.3
2023-10-11T07:25:40.111Z,10.4
2023-10-11T07:28:06.228Z,10.4
2023-10-11T07:30:32.306Z,10.5
2023-10-11T07:32:57.413Z,10.5
2023-10-11T07:35:23.509Z,10.6
2023-10-11T07:37:49.608Z,10.7
2023-10-11T07:40:15.717Z,10.7
2023-10-11T07:42:41.803Z,10.8
2023-10-11T07:45:07.889Z,10.8
2023-10-11T07:47:34.062Z,10.9
2023-10-11T07:50:00.136Z,11
2023-10-11T07:54:52.290Z,11.1
2023-10-11T07:57:18.386Z,11.2
2023-10-11T07:59:44.468Z,11.3
2023-10-11T08:02:10.569Z,11.4
2023-10-11T08:04:36.794Z,11.4
2023-10-11T08:07:02.867Z,11.5
2023-10-11T08:09:28.971Z,11.6
2023-10-11T08:11:55.057Z,11.7
2023-10-11T08:14:21.155Z,11.7
2023-10-11T08:16:47.268Z,11.8
2023-10-11T08:19:13.345Z,11.9
2023-10-11T08:21:39.456Z,12
2023-10-11T08:24:05.535Z,12.1
2023-10-11T08:26:31.626Z,12.2
2023-10-11T08:28:57.759Z,12.3
2023-10-11T08:31:23.816Z,12.4
2023-10-11T08:33:49.930Z,12.5
2023-10-11T08:36:15.035Z,12.5
2023-10-11T08:38:41.119Z,12.6
2023-10-11T08:41:07.211Z,12.7
2023-10-11T08:43:33.312Z,12.8
2023-10-11T08:45:59.405Z,12.9
2023-10-11T08:48:25.521Z,13
2023-10-11T08:50:51.605Z,13.1
2023-10-11T08:53:17.684Z,13.2
2023-10-11T08:55:43.797Z,13.3
2023-10-11T08:58:09.879Z,13.4
2023-10-11T09:00:35.980Z,13.5
2023-10-11T09:03:02.063Z,13.6
2023-10-11T09:05:28.163Z,13.7
2023-10-11T09:07:54.399Z,13.8
2023-10-11T09:10:20.498Z,13.9
2023-10-11T09:12:46.571Z,14
2023-10-11T09:15:12.675Z,14.2
2023-10-11T09:17:38.762Z,14.3
2023-10-11T09:20:04.861Z,14.4
2023-10-11T09:22:30.957Z,14.5
2023-10-11T09:24:57.054Z,14.6
2023-10-11T09:27:23.146Z,14.7
2023-10-11T09:29:49.243Z,14.9
2023-10-11T09:32:15.755Z,15
2023-10-11T09:34:41.442Z,15.1
2023-10-11T09:37:07.554Z,15.3
2023-10-11T09:39:32.710Z,15.4
2023-10-11T09:41:58.740Z,15.5
2023-10-11T09:44:24.830Z,15.6
2023-10-11T09:46:50.924Z,15.7
2023-10-11T09:49:17.015Z,15.8
2023-10-11T09:51:43.125Z,15.9
2023-10-11T09:54:09.296Z,16
2023-10-11T09:56:35.307Z,16.1
2023-10-11T09:59:01.391Z,16.2
2023-10-11T10:01:27.510Z,16.3
2023-10-11T10:03:53.574Z,16.4
2023-10-11T10:06:19.699Z,16.5
2023-10-11T10:08:45.769Z,16.6
2023-10-11T10:11:12.002Z,16.8
2023-10-11T10:13:38.141Z,16.9
2023-10-11T10:16:04.217Z,17.1
2023-10-11T10:18:30.285Z,17.2
2023-10-11T10:20:56.374Z,17.4
2023-10-11T10:23:22.538Z,17.6
2023-10-11T10:25:48.576Z,17.8
2023-10-11T10:28:14.652Z,18
2023-10-11T10:30:40.744Z,18.2
2023-10-11T10:33:06.843Z,18.4
2023-10-11T10:35:32.945Z,18.5
2023-10-11T10:37:59.101Z,18.6
2023-10-11T10:40:25.134Z,18.7
2023-10-11T10:42:50.243Z,18.9
2023-10-11T10:45:16.393Z,19
2023-10-11T10:47:42.441Z,19.2
2023-10-11T10:50:08.622Z,19.4
2023-10-11T10:52:34.630Z,19.6
2023-10-11T10:55:00.726Z,19.8
2023-10-11T10:57:26.810Z,19.9
2023-10-11T10:59:52.909Z,20
2023-10-11T11:02:19.000Z,20.1
2023-10-11T11:04:45.098Z,20.2
2023-10-11T11:07:11.194Z,20.3
2023-10-11T11:09:37.277Z,20.4
2023-10-11T11:12:03.396Z,20.5
2023-10-11T11:14:29.594Z,20.7
2023-10-11T11:16:55.692Z,20.8
2023-10-11T11:19:21.776Z,20.9
2023-10-11T11:21:47.878Z,21
2023-10-11T11:24:13.961Z,21.2
2023-10-11T11:26:40.066Z,21.3
2023-10-11T11:29:06.168Z,21.4
2023-10-11T11:31:32.266Z,21.6
2023-10-11T11:33:58.358Z,21.8
2023-10-11T11:36:24.425Z,21.9
2023-10-11T11:38:50.578Z,21.9
2023-10-11T11:41:16.628Z,22
2023-10-11T11:43:42.784Z,22.1
2023-10-11T11:46:07.938Z,22.2
2023-10-11T11:48:33.931Z,22.3
2023-10-11T11:51:00.037Z,22.3
2023-10-11T11:53:26.128Z,22.4
2023-10-11T11:55:52.272Z,22.4
2023-10-11T11:58:18.317Z,22.5
2023-10-11T12:00:44.406Z,22.6
2023-10-11T12:03:10.492Z,22.6
2023-10-11T12:05:36.602Z,22.7
2023-10-11T12:08:02.733Z,22.8
2023-10-11T12:10:28.790Z,22.9
2023-10-11T12:12:54.875Z,23
2023-10-11T12:15:20.982Z,23.1
2023-10-11T12:17:47.198Z,23.2
2023-10-11T12:20:13.289Z,23.2
2023-10-11T12:22:39.378Z,23.3
2023-10-11T12:25:05.500Z,23.4
2023-10-11T12:27:32.001Z,23.5
2023-10-11T12:29:57.671Z,23.6
2023-10-11T12:32:23.773Z,23.6
2023-10-11T12:34:49.866Z,23.7
2023-10-11T12:37:15.951Z,23.7
2023-10-11T12:39:42.039Z,23.8
2023-10-11T12:42:08.144Z,23.9
2023-10-11T12:44:34.227Z,24
2023-10-11T12:47:00.323Z,24.1
2023-10-11T12:49:26.427Z,24.2
2023-10-11T12:51:52.639Z,24.2
2023-10-11T12:54:18.718Z,24.3
2023-10-11T12:56:44.822Z,24.3
2023-10-11T12:59:10.938Z,24.4
2023-10-11T13:01:37.011Z,24.4
2023-10-11T13:04:03.115Z,24.5
2023-10-11T13:06:29.205Z,24.6
2023-10-11T13:08:55.297Z,24.6
2023-10-11T13:11:21.491Z,24.7
2023-10-11T13:13:47.497Z,24.8
2023-10-11T13:16:13.631Z,24.9
2023-10-11T13:18:39.718Z,24.9
2023-10-11T13:21:05.775Z,25
2023-10-11T13:23:30.916Z,25
2023-10-11T13:25:57.018Z,25
2023-10-11T13:28:23.097Z,25
2023-10-11T13:30:49.169Z,25
2023-10-11T13:33:15.261Z,25
2023-10-11T13:35:41.496Z,25
2023-10-11T13:38:07.582Z,25
2023-10-11T13:40:33.684Z,25
2023-10-11T13:42:59.763Z,25
2023-10-11T13:45:25.874Z,25
2023-10-11T13:47:51.969Z,25
2023-10-11T13:50:18.052Z,25
2023-10-11T13:52:44.153Z,25
2023-10-11T13:55:10.254Z,25
2023-10-11T13:57:36.334Z,25.1
2023-10-11T14:00:02.447Z,25.1
2023-10-11T14:02:28.662Z,25.1
2023-10-11T14:04:54.643Z,25.2
2023-10-11T14:07:19.767Z,25.2
2023-10-11T14:09:45.867Z,25.3
2023-10-11T14:12:11.933Z,25.3
2023-10-11T14:14:38.031Z,25.4
2023-10-11T14:17:04.121Z,25.5
2023-10-11T14:19:30.208Z,25.5
2023-10-11T14:21:56.315Z,25.6
2023-10-11T14:24:22.407Z,25.7
2023-10-11T14:26:48.514Z,25.8
2023-10-11T14:29:14.608Z,26.1
2023-10-11T14:31:40.696Z,26.6
2023-10-11T14:34:06.812Z,27.3
2023-10-11T14:36:32.928Z,27.9
2023-10-11T14:38:59.105Z,28.4
2023-10-11T14:41:25.193Z,28.4
2023-10-11T14:43:51.283Z,28.4
2023-10-11T14:46:17.380Z,28.2
2023-10-11T14:48:43.483Z,28
2023-10-11T14:51:09.583Z,27.7
2023-10-11T14:53:35.671Z,27.5
2023-10-11T14:56:01.756Z,27.3
2023-10-11T14:58:27.851Z,27.1
2023-10-11T15:00:54.006Z,26.9
2023-10-11T15:03:20.045Z,26.7
2023-10-11T15:05:46.163Z,26.5
2023-10-11T15:08:12.254Z,26.3
2023-10-11T15:10:37.356Z,26.1
2023-10-11T15:13:03.455Z,25.9
2023-10-11T15:15:29.543Z,25.6
2023-10-11T15:17:55.637Z,25.4
2023-10-11T15:20:21.739Z,25.2
2023-10-11T15:22:47.860Z,24.9
2023-10-11T15:25:13.914Z,24.7
2023-10-11T15:27:40.016Z,24.4
2023-10-11T15:30:06.106Z,24.2
2023-10-11T15:32:32.220Z,24
2023-10-11T15:34:58.307Z,23.8
2023-10-11T15:37:24.382Z,23.5
2023-10-11T15:39:50.516Z,23.3
2023-10-11T15:42:16.693Z,23.1
2023-10-11T15:44:42.796Z,22.9
2023-10-11T15:47:08.890Z,22.7
2023-10-11T15:49:34.992Z,22.5
2023-10-11T15:52:01.075Z,22.3
2023-10-11T15:54:27.188Z,22.1
2023-10-11T15:56:53.276Z,21.9
2023-10-11T15:59:19.359Z,21.8
2023-10-11T16:01:45.465Z,21.6
2023-10-11T16:04:11.613Z,21.4
2023-10-11T16:06:37.664Z,21.2
2023-10-11T16:09:03.911Z,21.1
2023-10-11T16:11:29.849Z,20.9
2023-10-11T16:13:54.961Z,20.7
2023-10-11T16:16:21.074Z,20.6
2023-10-11T16:18:47.132Z,20.4
2023-10-11T16:21:13.235Z,20.3
2023-10-11T16:23:39.326Z,20.1
2023-10-11T16:26:05.437Z,20
2023-10-11T16:28:31.515Z,19.8
2023-10-11T16:30:57.613Z,19.7
2023-10-11T16:33:23.707Z,19.5
2023-10-11T16:35:49.861Z,19.4
2023-10-11T16:38:15.908Z,19.2
2023-10-11T16:40:42.034Z,19
2023-10-11T16:43:08.103Z,18.9
2023-10-11T16:45:34.314Z,18.7
2023-10-11T16:48:00.416Z,18.6
2023-10-11T16:50:26.495Z,18.4
2023-10-11T16:52:52.582Z,18.3
2023-10-11T16:55:18.704Z,18.2
2023-10-11T16:57:44.791Z,18
2023-10-11T17:00:10.868Z,17.9
2023-10-11T17:02:36.981Z,17.8
2023-10-11T17:05:03.072Z,17.7
2023-10-11T17:07:29.172Z,17.6
2023-10-11T17:09:55.246Z,17.5
2023-10-11T17:12:21.370Z,17.4
2023-10-11T17:14:47.452Z,17.3
2023-10-11T17:17:12.556Z,17.2
2023-10-11T17:19:38.651Z,17.1
2023-10-11T17:22:04.750Z,17
2023-10-11T17:24:30.843Z,16.9
2023-10-11T17:26:56.932Z,16.8
2023-10-11T17:29:23.042Z,16.7
2023-10-11T17:31:49.245Z,16.6
2023-10-11T17:34:15.238Z,16.5
2023-10-11T17:36:41.306Z,16.5
2023-10-11T17:39:07.547Z,16.4
2023-10-11T17:41:33.520Z,16.3
2023-10-11T17:43:59.604Z,16.2
2023-10-11T17:46:25.704Z,16.1
2023-10-11T17:48:51.943Z,16
2023-10-11T17:51:18.006Z,16
2023-10-11T17:53:44.185Z,15.9
2023-10-11T17:56:10.191Z,15.8
2023-10-11T17:58:36.302Z,15.7
2023-10-11T18:01:02.404Z,15.7
2023-10-11T18:03:28.493Z,15.6
2023-10-11T18:05:54.578Z,15.5
2023-10-11T18:08:20.723Z,15.4
2023-10-11T18:10:46.839Z,15.4
2023-10-11T18:13:12.868Z,15.3
2023-10-11T18:15:38.971Z,15.2
2023-10-11T18:18:05.065Z,15.2
2023-10-11T18:20:30.203Z,15.1
2023-10-11T18:22:56.293Z,15.1
2023-10-11T18:25:22.391Z,15
2023-10-11T18:27:48.477Z,15
2023-10-11T18:30:14.666Z,15
2023-10-11T18:32:40.674Z,15
2023-10-11T18:35:06.755Z,14.9
2023-10-11T18:37:32.846Z,14.9
2023-10-11T18:39:58.952Z,14.9
2023-10-11T18:42:25.050Z,14.8
2023-10-11T18:44:51.138Z,14.8
2023-10-11T18:47:17.291Z,14.7
2023-10-11T18:49:43.337Z,14.7
2023-10-11T18:52:08.447Z,14.6
2023-10-11T18:54:34.544Z,14.6
2023-10-11T18:57:00.625Z,14.5
2023-10-11T18:59:26.826Z,14.4
2023-10-11T19:01:52.910Z,14.4
2023-10-11T19:04:18.882Z,14.3
2023-10-11T19:06:45.012Z,14.3
2023-10-11T19:09:11.097Z,14.3
2023-10-11T19:11:37.192Z,14.2
2023-10-11T19:14:03.275Z,14.2
2023-10-11T19:16:29.369Z,14.1
2023-10-11T19:18:55.475Z,14.1
2023-10-11T19:21:21.563Z,14.1
2023-10-11T19:23:46.737Z,14
2023-10-11T19:26:12.790Z,14
2023-10-11T19:28:38.934Z,14
2023-10-11T19:31:04.968Z,13.9
2023-10-11T19:33:31.082Z,13.9
2023-10-11T19:35:57.331Z,13.9
2023-10-11T19:38:23.260Z,13.9
2023-10-11T19:40:49.352Z,13.8
2023-10-11T19:43:15.450Z,13.8
2023-10-11T19:45:41.563Z,13.8
2023-10-11T19:48:07.633Z,13.7
2023-10-11T19:50:33.769Z,13.7
2023-10-11T19:52:59.920Z,13.6
2023-10-11T19:55:24.946Z,13.6
2023-10-11T19:57:51.068Z,13.6
2023-10-11T20:00:17.253Z,13.5
2023-10-11T20:02:43.221Z,13.5
2023-10-11T20:05:09.421Z,13.5
2023-10-11T20:07:35.487Z,13.4
2023-10-11T20:10:01.506Z,13.4
2023-10-11T20:12:27.608Z,13.3
2023-10-11T20:14:53.731Z,13.3
2023-10-11T20:17:19.782Z,13.3
2023-10-11T20:19:45.886Z,13.2
2023-10-11T20:22:11.986Z,13.2
2023-10-11T20:24:38.077Z,13.2
2023-10-11T20:27:03.232Z,13.1
2023-10-11T20:29:29.282Z,13.1
2023-10-11T20:31:55.384Z,13.1
2023-10-11T20:34:21.476Z,13
2023-10-11T20:36:47.571Z,13
2023-10-11T20:39:13.663Z,13
2023-10-11T20:41:39.764Z,12.9
2023-10-11T20:44:05.835Z,12.9
2023-10-11T20:46:31.944Z,12.9
2023-10-11T20:48:58.103Z,12.8
2023-10-11T20:51:24.143Z,12.8
2023-10-11T20:53:50.232Z,12.8
2023-10-11T20:56:16.324Z,12.7
2023-10-11T20:58:41.437Z,12.7
2023-10-11T21:01:07.548Z,12.7
2023-10-11T21:03:33.632Z,12.7
2023-10-11T21:05:59.749Z,12.6
2023-10-11T21:08:25.825Z,12.6
2023-10-11T21:10:51.901Z,12.6
2023-10-11T21:13:18.004Z,12.6
2023-10-11T21:15:44.117Z,12.5
2023-10-11T21:18:10.183Z,12.5
2023-10-11T21:20:36.284Z,12.5
2023-10-11T21:23:02.379Z,12.5
2023-10-11T21:25:28.473Z,12.5
2023-10-11T21:27:54.577Z,12.5
2023-10-11T21:30:19.700Z,12.4
2023-10-11T21:32:45.780Z,12.4
2023-10-11T21:35:11.881Z,12.4
2023-10-11T21:37:37.964Z,12.4
2023-10-11T21:40:04.063Z,12.3
2023-10-11T21:42:30.208Z,12.3
2023-10-11T21:44:55.273Z,12.3
2023-10-11T21:47:21.362Z,12.2
2023-10-11T21:49:47.460Z,12.2
2023-10-11T21:52:13.555Z,12.2
2023-10-11T21:54:39.648Z,12.2
2023-10-11T21:57:05.735Z,12.1
2023-10-11T21:59:31.852Z,12.1
2023-10-11T22:01:57.936Z,12.1
2023-10-11T22:04:24.030Z,12.1
2023-10-11T22:06:50.125Z,12
2023-10-11T22:09:16.228Z,12
2023-10-11T22:11:42.344Z,12
2023-10-11T22:14:08.476Z,12
2023-10-11T22:16:33.511Z,11.9
2023-10-11T22:18:59.632Z,11.9
2023-10-11T22:21:25.728Z,11.9
2023-10-11T22:23:51.905Z,11.9
2023-10-11T22:26:17.966Z,11.9
2023-10-11T22:28:43.998Z,11.9
2023-10-11T22:31:10.081Z,11.9
2023-10-11T22:33:36.176Z,11.9
2023-10-11T22:36:02.314Z,11.8
2023-10-11T22:38:28.371Z,11.8
2023-10-11T22:43:20.555Z,11.8
2023-10-11T22:45:46.649Z,11.8
2023-10-11T22:48:11.773Z,11.8
2023-10-11T22:50:37.887Z,11.7
2023-10-11T22:53:03.957Z,11.7
2023-10-11T22:55:30.038Z,11.7
2023-10-11T22:57:56.143Z,11.7
2023-10-11T23:00:22.243Z,11.7
2023-10-11T23:02:48.343Z,11.7
2023-10-11T23:05:14.433Z,11.7
2023-10-11T23:07:40.541Z,11.7
2023-10-11T23:10:06.624Z,11.6
2023-10-11T23:12:32.727Z,11.6
2023-10-11T23:14:58.820Z,11.6
2023-10-11T23:17:24.936Z,11.6
2023-10-11T23:19:50.007Z,11.6
2023-10-11T23:22:16.114Z,11.6
2023-10-11T23:24:42.215Z,11.5
2023-10-11T23:27:08.309Z,11.5
2023-10-11T23:29:34.398Z,11.5
2023-10-11T23:32:00.487Z,11.5
2023-10-11T23:34:26.588Z,11.5
2023-10-11T23:36:52.742Z,11.5
2023-10-11T23:39:18.807Z,11.5
2023-10-11T23:41:44.873Z,11.5
2023-10-11T23:44:10.998Z,11.5
2023-10-11T23:46:37.051Z,11.5
2023-10-11T23:49:03.140Z,11.4
2023-10-11T23:51:28.300Z,11.4
2023-10-11T23:53:54.364Z,11.4
2023-10-11T23:56:20.456Z,11.4
2023-10-11T23:58:46.545Z,11.4
